createdAt,value
2018-06-05T00:00:41.824Z,99.99
2018-06-05T00:01:41.867Z,99.99
2018-06-05T00:02:41.931Z,99.99
2018-06-05T00:03:41.995Z,99.99
2018-06-05T00:04:42.079Z,99.99
2018-06-05T00:05:42.143Z,99.99
2018-06-05T00:06:42.195Z,99.99
2018-06-05T00:07:42.259Z,99.99
2018-06-05T00:08:42.331Z,99.99
2018-06-05T00:09:42.396Z,99.99
2018-06-05T00:10:42.463Z,99.99
2018-06-05T00:11:42.523Z,99.99
2018-06-05T00:12:42.628Z,99.99
2018-06-05T00:13:42.651Z,99.99
2018-06-05T00:14:42.735Z,99.99
2018-06-05T00:15:42.804Z,99.99
2018-06-05T00:16:42.851Z,99.99
2018-06-05T00:17:42.924Z,99.99
2018-06-05T00:18:42.984Z,99.99
2018-06-05T00:19:43.062Z,99.99
2018-06-05T00:20:43.140Z,99.99
2018-06-05T00:21:43.183Z,99.99
2018-06-05T00:22:43.243Z,99.99
2018-06-05T00:23:43.319Z,99.99
2018-06-05T00:24:43.379Z,99.99
2018-06-05T00:25:43.451Z,99.99
2018-06-05T00:26:43.514Z,99.99
2018-06-05T00:27:43.571Z,99.99
2018-06-05T00:28:43.640Z,99.99
2018-06-05T00:29:43.716Z,99.99
2018-06-05T00:30:43.776Z,99.99
2018-06-05T00:31:43.832Z,99.99
2018-06-05T00:32:43.904Z,99.99
2018-06-05T00:33:43.978Z,99.99
2018-06-05T00:34:44.040Z,99.99
2018-06-05T00:35:44.104Z,99.99
2018-06-05T00:36:44.168Z,99.99
2018-06-05T00:37:44.237Z,99.99
2018-06-05T00:38:44.308Z,99.99
2018-06-05T00:39:44.364Z,99.99
2018-06-05T00:40:44.436Z,99.99
2018-06-05T00:41:44.492Z,99.99
2018-06-05T00:42:44.560Z,99.99
2018-06-05T00:43:44.627Z,99.99
2018-06-05T00:44:44.696Z,99.99
2018-06-05T00:45:44.761Z,99.99
2018-06-05T00:46:44.821Z,99.99
2018-06-05T00:47:44.885Z,99.99
2018-06-05T00:48:44.952Z,99.99
2018-06-05T00:49:45.025Z,99.99
2018-06-05T00:50:45.089Z,99.99
2018-06-05T00:51:45.148Z,99.99
2018-06-05T00:52:45.213Z,99.99
2018-06-05T00:53:45.277Z,99.99
2018-06-05T00:54:45.360Z,99.99
2018-06-05T00:55:45.413Z,99.99
2018-06-05T00:56:45.473Z,99.99
2018-06-05T00:57:45.540Z,99.99
2018-06-05T00:58:45.605Z,99.99
2018-06-05T00:59:45.677Z,99.99
2018-06-05T01:00:45.741Z,99.99
2018-06-05T01:01:45.802Z,99.99
2018-06-05T01:02:45.867Z,99.99
2018-06-05T01:03:45.933Z,99.99
2018-06-05T01:04:46.005Z,99.99
2018-06-05T01:05:46.068Z,99.99
2018-06-05T01:06:46.129Z,99.99
2018-06-05T01:07:46.193Z,99.99
2018-06-05T01:08:46.261Z,99.99
2018-06-05T01:09:46.327Z,99.99
2018-06-05T01:10:46.508Z,99.99
2018-06-05T01:11:46.453Z,99.99
2018-06-05T01:12:46.522Z,99.99
2018-06-05T01:13:46.585Z,99.99
2018-06-05T01:14:46.649Z,99.99
2018-06-05T01:15:46.721Z,99.99
2018-06-05T01:16:46.789Z,99.99
2018-06-05T01:17:46.849Z,99.99
2018-06-05T01:18:46.913Z,99.99
2018-06-05T01:19:46.978Z,99.99
2018-06-05T01:20:47.049Z,99.99
2018-06-05T01:21:47.113Z,99.99
2018-06-05T01:22:47.174Z,99.99
2018-06-05T01:23:47.237Z,99.99
2018-06-05T01:24:47.302Z,99.99
2018-06-05T01:25:47.398Z,99.99
2018-06-05T01:26:47.469Z,99.99
2018-06-05T01:27:47.521Z,99.99
2018-06-05T01:28:47.574Z,99.99
2018-06-05T01:29:47.630Z,99.99
2018-06-05T01:30:47.725Z,99.99
2018-06-05T01:31:47.771Z,99.99
2018-06-05T01:32:47.830Z,99.99
2018-06-05T01:33:47.905Z,99.99
2018-06-05T01:34:47.962Z,99.99
2018-06-05T01:35:48.066Z,99.99
2018-06-05T01:36:48.098Z,99.99
2018-06-05T01:37:48.154Z,99.99
2018-06-05T01:38:48.214Z,99.99
2018-06-05T01:39:48.282Z,99.99
2018-06-05T01:40:48.374Z,99.99
2018-06-05T01:41:48.434Z,99.99
2018-06-05T01:42:48.490Z,99.99
2018-06-05T01:43:48.551Z,99.99
2018-06-05T01:44:48.607Z,99.99
2018-06-05T01:45:48.691Z,99.99
2018-06-05T01:46:48.746Z,99.99
2018-06-05T01:47:48.806Z,99.99
2018-06-05T01:48:48.867Z,99.99
2018-06-05T01:49:48.943Z,99.99
2018-06-05T01:50:49.023Z,99.99
2018-06-05T01:51:49.080Z,99.99
2018-06-05T01:52:49.139Z,99.99
2018-06-05T01:53:49.199Z,99.99
2018-06-05T01:54:49.259Z,99.99
2018-06-05T01:55:49.335Z,99.99
2018-06-05T01:56:49.395Z,99.99
2018-06-05T01:57:49.455Z,99.99
2018-06-05T01:58:49.531Z,99.99
2018-06-05T01:59:49.587Z,99.99
2018-06-05T02:00:49.687Z,99.99
2018-06-05T02:01:49.732Z,99.99
2018-06-05T02:02:49.793Z,99.99
2018-06-05T02:03:49.848Z,99.99
2018-06-05T02:04:49.928Z,99.99
2018-06-05T02:05:49.988Z,99.99
2018-06-05T02:06:50.053Z,99.99
2018-06-05T02:07:50.116Z,99.99
2018-06-05T02:08:50.181Z,99.99
2018-06-05T02:09:50.244Z,99.99
2018-06-05T02:10:50.350Z,99.99
2018-06-05T02:11:50.376Z,99.99
2018-06-05T02:12:50.436Z,99.99
2018-06-05T02:13:50.504Z,99.99
2018-06-05T02:14:50.576Z,99.99
2018-06-05T02:15:50.656Z,99.99
2018-06-05T02:16:50.717Z,99.99
2018-06-05T02:17:50.769Z,99.99
2018-06-05T02:18:50.833Z,99.99
2018-06-05T02:19:50.896Z,99.99
2018-06-05T02:20:50.985Z,99.99
2018-06-05T02:21:51.056Z,99.99
2018-06-05T02:22:51.089Z,99.99
2018-06-05T02:23:51.166Z,99.99
2018-06-05T02:24:51.224Z,99.99
2018-06-05T02:25:51.604Z,99.99
2018-06-05T02:26:51.365Z,99.99
2018-06-05T02:27:51.421Z,99.99
2018-06-05T02:28:51.481Z,99.99
2018-06-05T02:29:51.561Z,99.99
2018-06-05T02:30:51.637Z,99.99
2018-06-05T02:31:51.721Z,99.99
2018-06-05T02:32:51.753Z,99.99
2018-06-05T02:33:51.817Z,99.99
2018-06-05T02:34:51.891Z,99.99
2018-06-05T02:35:51.949Z,99.99
2018-06-05T02:36:52.020Z,99.99
2018-06-05T02:37:52.077Z,99.99
2018-06-05T02:38:52.147Z,99.99
2018-06-05T02:39:52.201Z,99.99
2018-06-05T02:40:52.397Z,99.99
2018-06-05T02:41:52.341Z,99.99
2018-06-05T02:42:52.401Z,99.99
2018-06-05T02:43:52.524Z,99.99
2018-06-05T02:44:52.545Z,99.99
2018-06-05T02:45:52.601Z,99.99
2018-06-05T02:46:52.681Z,99.99
2018-06-05T02:47:52.726Z,99.99
2018-06-05T02:48:52.797Z,99.99
2018-06-05T02:49:52.858Z,99.99
2018-06-05T02:50:52.938Z,99.99
2018-06-05T02:51:53.006Z,99.99
2018-06-05T02:52:53.053Z,99.99
2018-06-05T02:53:53.132Z,99.99
2018-06-05T02:54:53.210Z,99.99
2018-06-05T02:55:53.294Z,99.99
2018-06-05T02:56:53.514Z,99.96
2018-06-05T02:57:53.493Z,99.99
2018-06-05T02:58:53.622Z,99.99
2018-06-05T02:59:53.542Z,99.99
2018-06-05T03:00:53.582Z,99.99
2018-06-05T03:01:53.662Z,99.99
2018-06-05T03:02:53.722Z,99.99
2018-06-05T03:03:53.778Z,99.96
2018-06-05T03:04:53.854Z,99.99
2018-06-05T03:05:53.913Z,99.99
2018-06-05T03:06:53.982Z,99.99
2018-06-05T03:07:54.079Z,99.99
2018-06-05T03:08:54.107Z,99.96
2018-06-05T03:09:54.179Z,99.99
2018-06-05T03:10:54.242Z,99.96
2018-06-05T03:11:54.302Z,99.87
2018-06-05T03:12:54.396Z,99.99
2018-06-05T03:13:54.439Z,99.99
2018-06-05T03:14:54.499Z,99.99
2018-06-05T03:15:54.566Z,99.99
2018-06-05T03:16:54.631Z,99.96
2018-06-05T03:17:54.707Z,99.99
2018-06-05T03:18:54.782Z,99.99
2018-06-05T03:19:54.827Z,99.99
2018-06-05T03:20:54.897Z,99.99
2018-06-05T03:21:55.011Z,99.99
2018-06-05T03:22:55.036Z,99.99
2018-06-05T03:23:55.128Z,99.58
2018-06-05T03:24:55.151Z,99.99
2018-06-05T03:25:55.216Z,99.77
2018-06-05T03:26:55.288Z,99.99
2018-06-05T03:27:55.388Z,99.99
2018-06-05T03:28:55.419Z,99.99
2018-06-05T03:29:55.484Z,99.87
2018-06-05T03:30:55.548Z,99.99
2018-06-05T03:31:55.619Z,99.87
2018-06-05T03:32:55.690Z,99.99
2018-06-05T03:33:55.788Z,99.99
2018-06-05T03:34:55.811Z,99.99
2018-06-05T03:35:55.876Z,99.99
2018-06-05T03:36:55.948Z,99.99
2018-06-05T03:37:56.016Z,99.99
2018-06-05T03:38:56.088Z,99.99
2018-06-05T03:39:56.140Z,99.96
2018-06-05T03:40:56.212Z,99.99
2018-06-05T03:41:56.268Z,99.99
2018-06-05T03:42:56.444Z,99.99
2018-06-05T03:43:56.420Z,99.96
2018-06-05T03:44:56.464Z,99.96
2018-06-05T03:45:56.532Z,99.99
2018-06-05T03:46:56.592Z,99.96
2018-06-05T03:47:56.680Z,99.77
2018-06-05T03:48:56.736Z,99.96
2018-06-05T03:49:56.792Z,99.99
2018-06-05T03:50:56.858Z,99.87
2018-06-05T03:51:56.924Z,99.77
2018-06-05T03:52:56.996Z,99.29
2018-06-05T03:53:57.062Z,99.39
2018-06-05T03:54:57.120Z,99.99
2018-06-05T03:55:57.184Z,99.77
2018-06-05T03:56:57.250Z,99.99
2018-06-05T03:57:57.317Z,99.99
2018-06-05T03:58:57.553Z,99.58
2018-06-05T03:59:57.449Z,99.49
2018-06-05T04:00:57.517Z,99.58
2018-06-05T04:01:57.581Z,99.77
2018-06-05T04:02:57.641Z,99.39
2018-06-05T04:03:57.724Z,99.58
2018-06-05T04:04:57.781Z,99.99
2018-06-05T04:05:57.841Z,99.99
2018-06-05T04:06:57.905Z,99.29
2018-06-05T04:07:57.969Z,99.49
2018-06-05T04:08:58.041Z,99.58
2018-06-05T04:09:58.109Z,99.20
2018-06-05T04:10:58.165Z,99.68
2018-06-05T04:11:58.234Z,99.63
2018-06-05T04:12:58.297Z,99.39
2018-06-05T04:13:58.953Z,99.15
2018-06-05T04:14:58.431Z,99.49
2018-06-05T04:15:58.494Z,98.72
2018-06-05T04:16:58.566Z,99.10
2018-06-05T04:17:58.625Z,99.29
2018-06-05T04:18:58.690Z,99.58
2018-06-05T04:19:58.769Z,99.25
2018-06-05T04:20:58.822Z,99.54
2018-06-05T04:21:58.886Z,99.82
2018-06-05T04:22:58.954Z,98.96
2018-06-05T04:23:59.018Z,99.34
2018-06-05T04:24:59.098Z,99.25
2018-06-05T04:25:59.150Z,99.87
2018-06-05T04:26:59.237Z,99.34
2018-06-05T04:27:59.282Z,99.44
2018-06-05T04:28:59.346Z,99.44
2018-06-05T04:29:59.418Z,99.54
2018-06-05T04:30:59.482Z,98.58
2018-06-05T04:31:59.542Z,99.34
2018-06-05T04:32:59.610Z,99.34
2018-06-05T04:33:59.674Z,99.63
2018-06-05T04:34:59.746Z,98.77
2018-06-05T04:35:59.811Z,99.15
2018-06-05T04:36:59.870Z,99.05
2018-06-05T04:37:59.935Z,99.63
2018-06-05T04:39:00.003Z,99.54
2018-06-05T04:40:00.175Z,99.34
2018-06-05T04:41:00.131Z,98.77
2018-06-05T04:42:00.199Z,98.67
2018-06-05T04:43:00.263Z,99.25
2018-06-05T04:44:00.331Z,98.86
2018-06-05T04:45:00.403Z,98.77
2018-06-05T04:46:00.471Z,98.96
2018-06-05T04:47:00.531Z,98.10
2018-06-05T04:48:00.595Z,98.29
2018-06-05T04:49:00.659Z,98.96
2018-06-05T04:50:00.732Z,97.81
2018-06-05T04:51:00.795Z,97.81
2018-06-05T04:52:00.856Z,97.04
2018-06-05T04:53:00.919Z,97.14
2018-06-05T04:54:00.990Z,96.66
2018-06-05T04:55:01.062Z,97.28
2018-06-05T04:56:01.124Z,97.19
2018-06-05T04:57:01.184Z,97.19
2018-06-05T04:58:01.247Z,97.04
2018-06-05T04:59:01.315Z,97.42
2018-06-05T05:00:01.388Z,96.99
2018-06-05T05:01:01.452Z,96.75
2018-06-05T05:02:01.511Z,96.75
2018-06-05T05:03:01.576Z,96.80
2018-06-05T05:04:01.644Z,97.19
2018-06-05T05:05:01.716Z,96.61
2018-06-05T05:06:01.779Z,96.03
2018-06-05T05:07:01.840Z,96.13
2018-06-05T05:08:01.909Z,95.75
2018-06-05T05:09:01.972Z,95.55
2018-06-05T05:10:02.044Z,95.65
2018-06-05T05:11:02.108Z,95.75
2018-06-05T05:12:02.168Z,95.36
2018-06-05T05:13:02.237Z,95.07
2018-06-05T05:14:02.301Z,94.78
2018-06-05T05:15:02.378Z,94.21
2018-06-05T05:16:02.440Z,94.88
2018-06-05T05:17:02.500Z,94.11
2018-06-05T05:18:02.564Z,94.31
2018-06-05T05:19:02.628Z,94.01
2018-06-05T05:20:02.700Z,93.63
2018-06-05T05:21:02.768Z,93.73
2018-06-05T05:22:02.829Z,94.11
2018-06-05T05:23:02.892Z,94.40
2018-06-05T05:24:02.961Z,93.39
2018-06-05T05:25:03.056Z,93.44
2018-06-05T05:26:03.096Z,93.54
2018-06-05T05:27:03.160Z,93.34
2018-06-05T05:28:03.227Z,93.25
2018-06-05T05:29:03.289Z,93.39
2018-06-05T05:30:03.465Z,93.39
2018-06-05T05:31:03.421Z,92.81
2018-06-05T05:32:03.484Z,92.91
2018-06-05T05:33:03.554Z,93.19
2018-06-05T05:34:03.621Z,91.85
2018-06-05T05:35:03.689Z,91.85
2018-06-05T05:36:03.757Z,91.95
2018-06-05T05:37:03.816Z,91.37
2018-06-05T05:38:03.889Z,92.33
2018-06-05T05:39:03.948Z,92.24
2018-06-05T05:40:04.021Z,91.66
2018-06-05T05:41:04.089Z,91.66
2018-06-05T05:42:04.153Z,91.47
2018-06-05T05:43:04.213Z,91.95
2018-06-05T05:44:04.281Z,91.56
2018-06-05T05:45:04.517Z,91.95
2018-06-05T05:46:04.413Z,91.66
2018-06-05T05:47:04.520Z,91.66
2018-06-05T05:48:04.563Z,90.51
2018-06-05T05:49:04.609Z,90.51
2018-06-05T05:50:04.681Z,90.51
2018-06-05T05:51:04.749Z,91.56
2018-06-05T05:52:04.810Z,90.60
2018-06-05T05:53:04.874Z,90.31
2018-06-05T05:54:04.941Z,90.41
2018-06-05T05:55:05.014Z,90.80
2018-06-05T05:56:05.077Z,89.88
2018-06-05T05:57:05.140Z,89.30
2018-06-05T05:58:05.206Z,89.21
2018-06-05T05:59:05.269Z,89.88
2018-06-05T06:00:05.543Z,89.40
2018-06-05T06:01:05.406Z,89.50
2018-06-05T06:02:05.470Z,89.30
2018-06-05T06:03:05.539Z,88.82
2018-06-05T06:04:05.603Z,88.63
2018-06-05T06:05:05.675Z,88.53
2018-06-05T06:06:05.742Z,88.73
2018-06-05T06:07:05.802Z,89.11
2018-06-05T06:08:05.870Z,88.34
2018-06-05T06:09:05.934Z,87.29
2018-06-05T06:10:06.010Z,88.00
2018-06-05T06:11:06.078Z,87.76
2018-06-05T06:12:06.134Z,87.33
2018-06-05T06:13:06.202Z,87.52
2018-06-05T06:14:06.267Z,87.13
2018-06-05T06:15:06.350Z,86.08
2018-06-05T06:16:06.407Z,85.75
2018-06-05T06:17:06.470Z,86.61
2018-06-05T06:18:06.535Z,86.99
2018-06-05T06:19:06.599Z,86.99
2018-06-05T06:20:06.671Z,86.22
2018-06-05T06:21:06.739Z,85.94
2018-06-05T06:22:06.799Z,85.65
2018-06-05T06:23:06.868Z,87.09
2018-06-05T06:24:06.931Z,86.46
2018-06-05T06:25:07.005Z,86.13
2018-06-05T06:26:07.072Z,85.65
2018-06-05T06:27:07.136Z,86.32
2018-06-05T06:28:07.199Z,86.75
2018-06-05T06:29:07.266Z,86.85
2018-06-05T06:30:07.649Z,85.78
2018-06-05T06:31:07.395Z,86.08
2018-06-05T06:32:07.465Z,85.50
2018-06-05T06:33:07.537Z,85.02
2018-06-05T06:34:07.600Z,84.67
2018-06-05T06:35:07.671Z,83.96
2018-06-05T06:36:07.736Z,83.77
2018-06-05T06:37:07.796Z,82.94
2018-06-05T06:38:07.864Z,82.52
2018-06-05T06:39:07.932Z,82.32
2018-06-05T06:40:08.005Z,82.71
2018-06-05T06:41:08.072Z,82.65
2018-06-05T06:42:08.137Z,81.94
2018-06-05T06:43:08.200Z,82.17
2018-06-05T06:44:08.264Z,83.23
2018-06-05T06:45:08.636Z,82.75
2018-06-05T06:46:08.400Z,82.94
2018-06-05T06:47:08.464Z,82.60
2018-06-05T06:48:08.532Z,81.45
2018-06-05T06:49:08.600Z,81.45
2018-06-05T06:50:08.672Z,81.63
2018-06-05T06:51:08.744Z,81.06
2018-06-05T06:52:08.800Z,80.68
2018-06-05T06:53:08.868Z,81.40
2018-06-05T06:54:08.939Z,80.19
2018-06-05T06:55:09.004Z,81.21
2018-06-05T06:56:09.073Z,81.02
2018-06-05T06:57:09.141Z,81.70
2018-06-05T06:58:09.204Z,81.60
2018-06-05T06:59:09.268Z,81.40
2018-06-05T07:00:09.641Z,81.60
2018-06-05T07:01:09.401Z,81.30
2018-06-05T07:02:09.469Z,81.70
2018-06-05T07:03:09.537Z,81.70
2018-06-05T07:04:09.605Z,81.30
2018-06-05T07:05:09.677Z,81.73
2018-06-05T07:06:09.749Z,80.83
2018-06-05T07:07:09.805Z,81.06
2018-06-05T07:08:09.873Z,80.63
2018-06-05T07:09:09.941Z,80.44
2018-06-05T07:10:10.013Z,80.15
2018-06-05T07:11:10.089Z,79.77
2018-06-05T07:12:10.142Z,80.48
2018-06-05T07:13:10.217Z,80.96
2018-06-05T07:14:10.277Z,80.00
2018-06-05T07:15:10.350Z,80.29
2018-06-05T07:16:10.418Z,80.77
2018-06-05T07:17:10.478Z,80.00
2018-06-05T07:18:10.545Z,80.58
2018-06-05T07:19:10.609Z,81.16
2018-06-05T07:20:10.686Z,81.45
2018-06-05T07:21:10.754Z,81.50
2018-06-05T07:22:10.814Z,82.60
2018-06-05T07:23:10.881Z,82.12
2018-06-05T07:24:10.946Z,80.96
2018-06-05T07:25:11.026Z,81.35
2018-06-05T07:26:11.090Z,81.63
2018-06-05T07:27:11.154Z,81.06
2018-06-05T07:28:11.218Z,81.06
2018-06-05T07:29:11.286Z,80.96
2018-06-05T07:30:11.371Z,80.68
2018-06-05T07:31:11.429Z,79.90
2018-06-05T07:32:11.487Z,80.10
2018-06-05T07:33:11.564Z,80.29
2018-06-05T07:34:11.622Z,80.10
2018-06-05T07:35:11.701Z,81.35
2018-06-05T07:36:11.767Z,81.63
2018-06-05T07:37:11.823Z,81.93
2018-06-05T07:38:11.895Z,82.12
2018-06-05T07:39:11.962Z,81.35
2018-06-05T07:40:12.039Z,81.83
2018-06-05T07:41:12.098Z,82.94
2018-06-05T07:42:12.159Z,82.27
2018-06-05T07:43:12.226Z,83.04
2018-06-05T07:44:12.295Z,83.33
2018-06-05T07:45:12.366Z,83.42
2018-06-05T07:46:12.435Z,83.91
2018-06-05T07:47:12.496Z,83.42
2018-06-05T07:48:12.563Z,83.33
2018-06-05T07:49:12.631Z,83.23
2018-06-05T07:50:12.703Z,83.23
2018-06-05T07:51:12.771Z,83.04
2018-06-05T07:52:12.831Z,84.00
2018-06-05T07:53:12.898Z,83.52
2018-06-05T07:54:12.967Z,83.04
2018-06-05T07:55:13.067Z,83.04
2018-06-05T07:56:13.108Z,83.33
2018-06-05T07:57:13.168Z,84.58
2018-06-05T07:58:13.236Z,83.23
2018-06-05T07:59:13.303Z,82.85
2018-06-05T08:00:13.376Z,82.75
2018-06-05T08:01:13.446Z,83.14
2018-06-05T08:02:13.504Z,82.56
2018-06-05T08:03:13.571Z,83.33
2018-06-05T08:04:13.636Z,82.41
2018-06-05T08:05:13.715Z,83.18
2018-06-05T08:06:13.780Z,82.21
2018-06-05T08:07:13.840Z,81.93
2018-06-05T08:08:13.908Z,80.19
2018-06-05T08:09:13.976Z,81.87
2018-06-05T08:10:14.048Z,81.06
2018-06-05T08:11:14.116Z,80.19
2018-06-05T08:12:14.176Z,80.14
2018-06-05T08:13:14.252Z,80.10
2018-06-05T08:14:14.312Z,81.29
2018-06-05T08:15:14.384Z,81.35
2018-06-05T08:16:14.465Z,82.02
2018-06-05T08:17:14.512Z,82.21
2018-06-05T08:18:14.580Z,82.31
2018-06-05T08:19:14.648Z,81.63
2018-06-05T08:20:14.720Z,81.16
2018-06-05T08:21:14.788Z,81.35
2018-06-05T08:22:14.852Z,82.60
2018-06-05T08:23:14.924Z,83.37
2018-06-05T08:24:14.984Z,83.14
2018-06-05T08:25:15.060Z,83.04
2018-06-05T08:26:15.125Z,83.91
2018-06-05T08:27:15.188Z,84.48
2018-06-05T08:28:15.255Z,84.10
2018-06-05T08:29:15.323Z,84.10
2018-06-05T08:30:15.400Z,83.42
2018-06-05T08:31:15.461Z,83.62
2018-06-05T08:32:15.525Z,83.14
2018-06-05T08:33:15.593Z,83.04
2018-06-05T08:34:15.657Z,82.94
2018-06-05T08:35:15.733Z,83.14
2018-06-05T08:36:15.801Z,82.94
2018-06-05T08:37:15.861Z,83.23
2018-06-05T08:38:15.931Z,83.52
2018-06-05T08:39:15.993Z,83.91
2018-06-05T08:40:16.069Z,84.10
2018-06-05T08:41:16.137Z,83.81
2018-06-05T08:42:16.197Z,85.44
2018-06-05T08:43:16.266Z,85.06
2018-06-05T08:44:16.329Z,84.62
2018-06-05T08:45:16.438Z,83.91
2018-06-05T08:46:16.474Z,83.81
2018-06-05T08:47:16.537Z,84.23
2018-06-05T08:48:16.597Z,83.47
2018-06-05T08:49:16.672Z,83.08
2018-06-05T08:50:16.741Z,83.28
2018-06-05T08:51:16.811Z,83.22
2018-06-05T08:52:16.870Z,81.06
2018-06-05T08:53:16.938Z,81.68
2018-06-05T08:54:17.036Z,82.26
2018-06-05T08:55:17.093Z,82.06
2018-06-05T08:56:17.138Z,82.06
2018-06-05T08:57:17.206Z,80.04
2018-06-05T08:58:17.274Z,81.24
2018-06-05T08:59:17.341Z,81.04
2018-06-05T09:00:17.414Z,80.56
2018-06-05T09:01:17.481Z,78.98
2018-06-05T09:02:17.546Z,79.75
2018-06-05T09:03:17.610Z,81.10
2018-06-05T09:04:17.688Z,80.91
2018-06-05T09:05:17.771Z,80.52
2018-06-05T09:06:17.822Z,80.04
2018-06-05T09:07:17.887Z,79.85
2018-06-05T09:08:17.950Z,80.33
2018-06-05T09:09:18.018Z,79.85
2018-06-05T09:10:18.198Z,79.56
2018-06-05T09:11:18.154Z,79.75
2018-06-05T09:12:18.230Z,80.52
2018-06-05T09:13:18.294Z,81.68
2018-06-05T09:14:18.355Z,83.12
2018-06-05T09:15:18.430Z,82.35
2018-06-05T09:16:18.511Z,83.22
2018-06-05T09:17:18.559Z,82.74
2018-06-05T09:18:18.627Z,82.45
2018-06-05T09:19:18.703Z,82.74
2018-06-05T09:20:18.775Z,83.61
2018-06-05T09:21:18.843Z,83.61
2018-06-05T09:22:18.899Z,82.16
2018-06-05T09:23:18.968Z,82.45
2018-06-05T09:24:19.031Z,83.41
2018-06-05T09:25:19.347Z,83.22
2018-06-05T09:26:19.167Z,83.31
2018-06-05T09:27:19.235Z,82.49
2018-06-05T09:28:19.308Z,83.45
2018-06-05T09:29:19.375Z,82.29
2018-06-05T09:30:19.451Z,81.81
2018-06-05T09:31:19.515Z,82.49
2018-06-05T09:32:19.594Z,82.72
2018-06-05T09:33:19.647Z,80.31
2018-06-05T09:34:19.765Z,79.93
2018-06-05T09:35:19.783Z,80.69
2018-06-05T09:36:19.859Z,80.02
2018-06-05T09:37:19.923Z,80.12
2018-06-05T09:38:19.987Z,80.02
2018-06-05T09:39:20.055Z,79.83
2018-06-05T09:40:20.236Z,80.02
2018-06-05T09:41:20.189Z,79.74
2018-06-05T09:42:20.255Z,79.31
2018-06-05T09:43:20.331Z,79.69
2018-06-05T09:44:20.396Z,82.10
2018-06-05T09:45:20.476Z,80.69
2018-06-05T09:46:20.536Z,80.41
2018-06-05T09:47:20.596Z,78.58
2018-06-05T09:48:20.668Z,76.20
2018-06-05T09:49:20.732Z,76.78
2018-06-05T09:50:20.807Z,75.24
2018-06-05T09:51:20.876Z,73.79
2018-06-05T09:52:20.989Z,74.51
2018-06-05T09:53:21.008Z,75.67
2018-06-05T09:54:21.081Z,75.27
2018-06-05T09:55:21.148Z,73.93
2018-06-05T09:56:21.244Z,74.95
2018-06-05T09:57:21.280Z,75.37
2018-06-05T09:58:21.521Z,75.12
2018-06-05T09:59:21.417Z,74.83
2018-06-05T10:00:21.484Z,74.19
2018-06-05T10:01:21.561Z,75.06
2018-06-05T10:02:21.637Z,73.22
2018-06-05T10:03:21.693Z,71.30
2018-06-05T10:04:21.769Z,73.46
2018-06-05T10:05:21.828Z,71.10
2018-06-05T10:06:21.913Z,71.20
2018-06-05T10:07:21.981Z,71.20
2018-06-05T10:08:22.037Z,71.20
2018-06-05T10:09:22.105Z,72.16
2018-06-05T10:10:22.177Z,70.32
2018-06-05T10:11:22.266Z,69.65
2018-06-05T10:12:22.313Z,70.81
2018-06-05T10:13:22.385Z,71.45
2018-06-05T10:14:22.453Z,71.39
2018-06-05T10:15:22.521Z,70.90
2018-06-05T10:16:22.597Z,72.26
2018-06-05T10:17:22.665Z,72.39
2018-06-05T10:18:22.733Z,70.68
2018-06-05T10:19:22.817Z,70.68
2018-06-05T10:20:22.878Z,70.34
2018-06-05T10:21:22.950Z,69.98
2018-06-05T10:22:23.013Z,67.66
2018-06-05T10:23:23.078Z,67.63
2018-06-05T10:24:23.146Z,68.21
2018-06-05T10:25:23.217Z,68.62
2018-06-05T10:26:23.406Z,70.14
2018-06-05T10:27:23.357Z,71.72
2018-06-05T10:28:23.426Z,70.65
2018-06-05T10:29:23.505Z,70.07
2018-06-05T10:30:23.566Z,71.62
2018-06-05T10:31:23.650Z,71.04
2018-06-05T10:32:23.714Z,71.23
2018-06-05T10:33:23.779Z,70.23
2018-06-05T10:34:23.846Z,70.81
2018-06-05T10:35:23.914Z,70.90
2018-06-05T10:36:23.990Z,71.97
2018-06-05T10:37:24.062Z,72.16
2018-06-05T10:38:24.126Z,71.68
2018-06-05T10:39:24.194Z,70.52
2018-06-05T10:40:24.263Z,70.52
2018-06-05T10:41:24.343Z,70.32
2018-06-05T10:42:24.419Z,70.78
2018-06-05T10:43:24.470Z,71.39
2018-06-05T10:44:24.542Z,71.39
2018-06-05T10:45:24.611Z,71.58
2018-06-05T10:46:24.686Z,71.78
2018-06-05T10:47:24.763Z,71.20
2018-06-05T10:48:24.827Z,71.62
2018-06-05T10:49:24.890Z,71.72
2018-06-05T10:50:24.959Z,69.78
2018-06-05T10:51:25.031Z,69.49
2018-06-05T10:52:25.411Z,69.43
2018-06-05T10:53:25.170Z,70.40
2018-06-05T10:54:25.243Z,68.21
2018-06-05T10:55:25.307Z,68.53
2018-06-05T10:56:25.379Z,67.05
2018-06-05T10:57:25.455Z,68.46
2018-06-05T10:58:25.527Z,67.40
2018-06-05T10:59:25.587Z,68.17
2018-06-05T11:00:25.686Z,68.30
2018-06-05T11:01:25.727Z,68.08
2018-06-05T11:02:25.807Z,68.79
2018-06-05T11:03:25.875Z,69.43
2018-06-05T11:04:25.941Z,69.37
2018-06-05T11:05:26.013Z,69.75
2018-06-05T11:06:26.079Z,67.66
2018-06-05T11:07:26.303Z,67.56
2018-06-05T11:08:26.220Z,66.85
2018-06-05T11:09:26.292Z,67.53
2018-06-05T11:10:26.360Z,67.63
2018-06-05T11:11:26.451Z,69.40
2018-06-05T11:12:26.508Z,67.85
2018-06-05T11:13:26.575Z,67.82
2018-06-05T11:14:26.644Z,68.95
2018-06-05T11:15:26.712Z,69.66
2018-06-05T11:16:26.784Z,69.08
2018-06-05T11:17:26.868Z,68.33
2018-06-05T11:18:26.928Z,67.91
2018-06-05T11:19:26.994Z,67.40
2018-06-05T11:20:27.064Z,69.01
2018-06-05T11:21:27.132Z,68.72
2018-06-05T11:22:27.312Z,69.72
2018-06-05T11:23:27.272Z,69.10
2018-06-05T11:24:27.345Z,69.82
2018-06-05T11:25:27.421Z,69.04
2018-06-05T11:26:27.485Z,68.49
2018-06-05T11:27:27.560Z,67.88
2018-06-05T11:28:27.632Z,67.14
2018-06-05T11:29:27.697Z,68.01
2018-06-05T11:30:27.770Z,68.53
2018-06-05T11:31:27.838Z,68.24
2018-06-05T11:32:27.912Z,67.02
2018-06-05T11:33:27.988Z,66.82
2018-06-05T11:34:28.048Z,67.88
2018-06-05T11:35:28.117Z,66.60
2018-06-05T11:36:28.189Z,67.66
2018-06-05T11:37:28.421Z,66.72
2018-06-05T11:38:28.329Z,67.14
2018-06-05T11:39:28.401Z,67.66
2018-06-05T11:40:28.469Z,67.24
2018-06-05T11:41:28.541Z,68.30
2018-06-05T11:42:28.617Z,67.56
2018-06-05T11:43:28.689Z,68.05
2018-06-05T11:44:28.755Z,66.78
2018-06-05T11:45:28.827Z,67.14
2018-06-05T11:46:28.897Z,67.59
2018-06-05T11:47:28.970Z,68.43
2018-06-05T11:48:29.041Z,69.26
2018-06-05T11:49:29.105Z,69.30
2018-06-05T11:50:29.177Z,69.53
2018-06-05T11:51:29.246Z,68.66
2018-06-05T11:52:29.470Z,68.75
2018-06-05T11:53:29.386Z,68.24
2018-06-05T11:54:29.457Z,69.01
2018-06-05T11:55:29.526Z,69.59
2018-06-05T11:56:29.600Z,68.52
2018-06-05T11:57:29.680Z,70.20
2018-06-05T11:58:29.745Z,68.75
2018-06-05T11:59:29.805Z,68.17
2018-06-05T12:00:29.882Z,67.59
2018-06-05T12:01:29.948Z,68.21
2018-06-05T12:02:30.026Z,67.43
2018-06-05T12:03:30.095Z,68.21
2018-06-05T12:04:30.158Z,67.59
2018-06-05T12:05:30.230Z,69.04
2018-06-05T12:06:30.304Z,68.88
2018-06-05T12:07:30.374Z,69.14
2018-06-05T12:08:30.446Z,69.95
2018-06-05T12:09:30.510Z,68.21
2018-06-05T12:10:30.578Z,67.14
2018-06-05T12:11:30.650Z,67.63
2018-06-05T12:12:30.726Z,67.05
2018-06-05T12:13:30.794Z,67.69
2018-06-05T12:14:30.858Z,67.11
2018-06-05T12:15:30.930Z,68.27
2018-06-05T12:16:30.999Z,68.37
2018-06-05T12:17:31.174Z,69.62
2018-06-05T12:18:31.138Z,69.27
2018-06-05T12:19:31.210Z,68.79
2018-06-05T12:20:31.283Z,68.11
2018-06-05T12:21:31.351Z,68.05
2018-06-05T12:22:31.427Z,66.53
2018-06-05T12:23:31.505Z,66.69
2018-06-05T12:24:31.564Z,66.30
2018-06-05T12:25:31.637Z,65.92
2018-06-05T12:26:31.703Z,66.66
2018-06-05T12:27:31.783Z,66.11
2018-06-05T12:28:31.847Z,66.88
2018-06-05T12:29:31.911Z,66.88
2018-06-05T12:30:31.982Z,66.40
2018-06-05T12:31:32.054Z,66.69
2018-06-05T12:32:32.278Z,68.05
2018-06-05T12:33:32.195Z,66.72
2018-06-05T12:34:32.263Z,64.50
2018-06-05T12:35:32.340Z,65.11
2018-06-05T12:36:32.403Z,63.04
2018-06-05T12:37:32.483Z,66.95
2018-06-05T12:38:32.547Z,64.62
2018-06-05T12:39:32.618Z,64.11
2018-06-05T12:40:32.688Z,64.27
2018-06-05T12:41:32.759Z,65.14
2018-06-05T12:42:32.835Z,65.34
2018-06-05T12:43:32.903Z,65.66
2018-06-05T12:44:32.967Z,64.40
2018-06-05T12:45:33.043Z,65.82
2018-06-05T12:46:33.111Z,66.66
2018-06-05T12:47:33.191Z,67.72
2018-06-05T12:48:33.247Z,67.85
2018-06-05T12:49:33.319Z,66.20
2018-06-05T12:50:33.391Z,68.18
2018-06-05T12:51:33.461Z,66.85
2018-06-05T12:52:33.535Z,64.53
2018-06-05T12:53:33.608Z,65.37